sensor_id;sensor_type;location;lat;lon;timestamp;P1;durP1;ratioP1;P2;durP2;ratioP2
56599;SDS011;51832;48.152;11.530;2024-02-26T00:03:33;4.72;;;2.83;;
56599;SDS011;51832;48.152;11.530;2024-02-26T00:08:42;3.78;;;2.65;;
56599;SDS011;51832;48.152;11.530;2024-02-26T00:13:46;2.75;;;2.47;;
56599;SDS011;51832;48.152;11.530;2024-02-26T00:18:52;3.30;;;2.67;;
56599;SDS011;51832;48.152;11.530;2024-02-26T00:23:53;4.95;;;2.30;;
56599;SDS011;51832;48.152;11.530;2024-02-26T00:28:57;2.55;;;2.20;;
56599;SDS011;51832;48.152;11.530;2024-02-26T00:34:01;3.45;;;2.42;;
56599;SDS011;51832;48.152;11.530;2024-02-26T00:39:10;3.47;;;2.42;;
56599;SDS011;51832;48.152;11.530;2024-02-26T00:44:30;3.53;;;2.00;;
56599;SDS011;51832;48.152;11.530;2024-02-26T00:49:32;2.83;;;2.17;;
56599;SDS011;51832;48.152;11.530;2024-02-26T00:54:33;3.90;;;2.65;;
56599;SDS011;51832;48.152;11.530;2024-02-26T00:59:36;2.72;;;2.20;;
56599;SDS011;51832;48.152;11.530;2024-02-26T01:04:40;4.15;;;2.40;;
56599;SDS011;51832;48.152;11.530;2024-02-26T01:09:43;3.85;;;2.67;;
56599;SDS011;51832;48.152;11.530;2024-02-26T01:14:53;3.28;;;2.60;;
56599;SDS011;51832;48.152;11.530;2024-02-26T01:19:56;2.78;;;2.53;;
56599;SDS011;51832;48.152;11.530;2024-02-26T01:24:57;3.45;;;2.42;;
56599;SDS011;51832;48.152;11.530;2024-02-26T01:30:04;3.38;;;2.08;;
56599;SDS011;51832;48.152;11.530;2024-02-26T01:35:08;2.45;;;2.25;;
56599;SDS011;51832;48.152;11.530;2024-02-26T01:40:12;2.50;;;2.30;;
56599;SDS011;51832;48.152;11.530;2024-02-26T01:45:19;3.03;;;2.40;;
56599;SDS011;51832;48.152;11.530;2024-02-26T01:50:29;4.53;;;2.25;;
56599;SDS011;51832;48.152;11.530;2024-02-26T01:55:30;3.10;;;2.53;;
56599;SDS011;51832;48.152;11.530;2024-02-26T02:00:30;3.15;;;2.40;;
56599;SDS011;51832;48.152;11.530;2024-02-26T02:10:42;2.67;;;2.22;;
56599;SDS011;51832;48.152;11.530;2024-02-26T02:15:48;4.18;;;2.22;;
56599;SDS011;51832;48.152;11.530;2024-02-26T02:20:59;4.35;;;2.60;;
56599;SDS011;51832;48.152;11.530;2024-02-26T02:26:03;2.80;;;2.20;;
56599;SDS011;51832;48.152;11.530;2024-02-26T02:31:04;2.28;;;2.08;;
56599;SDS011;51832;48.152;11.530;2024-02-26T02:36:08;3.28;;;2.08;;
56599;SDS011;51832;48.152;11.530;2024-02-26T02:41:10;3.03;;;2.22;;
56599;SDS011;51832;48.152;11.530;2024-02-26T02:46:17;4.88;;;2.25;;
56599;SDS011;51832;48.152;11.530;2024-02-26T02:51:23;3.08;;;2.10;;
56599;SDS011;51832;48.152;11.530;2024-02-26T02:56:26;2.80;;;1.88;;
56599;SDS011;51832;48.152;11.530;2024-02-26T03:01:30;2.50;;;2.08;;
56599;SDS011;51832;48.152;11.530;2024-02-26T03:06:33;2.05;;;1.85;;
56599;SDS011;51832;48.152;11.530;2024-02-26T03:11:34;2.20;;;1.85;;
56599;SDS011;51832;48.152;11.530;2024-02-26T03:16:39;2.47;;;1.83;;
56599;SDS011;51832;48.152;11.530;2024-02-26T03:26:43;2.42;;;1.77;;
56599;SDS011;51832;48.152;11.530;2024-02-26T03:31:43;2.00;;;1.77;;
56599;SDS011;51832;48.152;11.530;2024-02-26T03:36:44;2.38;;;1.92;;
56599;SDS011;51832;48.152;11.530;2024-02-26T03:41:44;3.17;;;1.70;;
56599;SDS011;51832;48.152;11.530;2024-02-26T03:46:44;2.30;;;1.60;;
56599;SDS011;51832;48.152;11.530;2024-02-26T03:51:45;2.42;;;1.90;;
56599;SDS011;51832;48.152;11.530;2024-02-26T03:56:45;2.33;;;1.60;;
56599;SDS011;51832;48.152;11.530;2024-02-26T04:01:46;2.47;;;1.83;;
56599;SDS011;51832;48.152;11.530;2024-02-26T04:06:49;2.28;;;1.80;;
56599;SDS011;51832;48.152;11.530;2024-02-26T04:11:50;1.90;;;1.65;;
56599;SDS011;51832;48.152;11.530;2024-02-26T04:16:50;3.08;;;1.88;;
56599;SDS011;51832;48.152;11.530;2024-02-26T04:21:52;2.63;;;1.80;;
56599;SDS011;51832;48.152;11.530;2024-02-26T04:26:52;3.00;;;1.70;;
56599;SDS011;51832;48.152;11.530;2024-02-26T04:31:53;2.55;;;1.70;;
56599;SDS011;51832;48.152;11.530;2024-02-26T04:36:53;2.33;;;1.48;;
56599;SDS011;51832;48.152;11.530;2024-02-26T04:41:54;1.98;;;1.33;;
56599;SDS011;51832;48.152;11.530;2024-02-26T04:46:54;1.65;;;1.40;;
56599;SDS011;51832;48.152;11.530;2024-02-26T04:51:55;1.92;;;1.55;;
56599;SDS011;51832;48.152;11.530;2024-02-26T04:56:55;2.85;;;1.80;;
56599;SDS011;51832;48.152;11.530;2024-02-26T05:01:56;3.13;;;1.52;;
56599;SDS011;51832;48.152;11.530;2024-02-26T05:06:56;1.98;;;1.45;;
56599;SDS011;51832;48.152;11.530;2024-02-26T05:11:57;2.25;;;1.40;;
56599;SDS011;51832;48.152;11.530;2024-02-26T05:16:57;1.77;;;1.30;;
56599;SDS011;51832;48.152;11.530;2024-02-26T05:21:58;2.15;;;1.30;;
56599;SDS011;51832;48.152;11.530;2024-02-26T05:26:59;3.60;;;1.27;;
56599;SDS011;51832;48.152;11.530;2024-02-26T05:32:00;2.88;;;1.60;;
56599;SDS011;51832;48.152;11.530;2024-02-26T05:37:00;2.75;;;1.73;;
56599;SDS011;51832;48.152;11.530;2024-02-26T05:42:00;1.70;;;1.60;;
56599;SDS011;51832;48.152;11.530;2024-02-26T05:47:01;2.88;;;1.67;;
56599;SDS011;51832;48.152;11.530;2024-02-26T05:52:01;2.38;;;1.60;;
56599;SDS011;51832;48.152;11.530;2024-02-26T05:57:02;1.80;;;1.52;;
56599;SDS011;51832;48.152;11.530;2024-02-26T06:02:02;1.80;;;1.20;;
56599;SDS011;51832;48.152;11.530;2024-02-26T06:07:03;2.70;;;1.67;;
56599;SDS011;51832;48.152;11.530;2024-02-26T06:12:05;1.92;;;1.30;;
56599;SDS011;51832;48.152;11.530;2024-02-26T06:17:06;3.05;;;1.58;;
56599;SDS011;51832;48.152;11.530;2024-02-26T06:22:07;2.60;;;1.52;;
56599;SDS011;51832;48.152;11.530;2024-02-26T06:27:07;1.55;;;1.40;;
56599;SDS011;51832;48.152;11.530;2024-02-26T06:32:08;3.22;;;1.42;;
56599;SDS011;51832;48.152;11.530;2024-02-26T06:37:09;3.42;;;1.70;;
56599;SDS011;51832;48.152;11.530;2024-02-26T06:42:09;2.53;;;1.35;;
56599;SDS011;51832;48.152;11.530;2024-02-26T06:47:10;1.88;;;1.30;;
56599;SDS011;51832;48.152;11.530;2024-02-26T06:52:11;2.17;;;1.40;;
56599;SDS011;51832;48.152;11.530;2024-02-26T06:57:12;1.98;;;1.33;;
56599;SDS011;51832;48.152;11.530;2024-02-26T07:02:14;2.85;;;1.88;;
56599;SDS011;51832;48.152;11.530;2024-02-26T07:07:14;2.78;;;1.73;;
56599;SDS011;51832;48.152;11.530;2024-02-26T07:12:15;5.32;;;3.05;;
56599;SDS011;51832;48.152;11.530;2024-02-26T07:17:21;2.83;;;2.53;;
56599;SDS011;51832;48.152;11.530;2024-02-26T07:22:23;5.30;;;2.55;;
56599;SDS011;51832;48.152;11.530;2024-02-26T07:27:24;6.15;;;2.53;;
56599;SDS011;51832;48.152;11.530;2024-02-26T07:32:24;3.95;;;2.42;;
56599;SDS011;51832;48.152;11.530;2024-02-26T07:37:25;5.13;;;2.83;;
56599;SDS011;51832;48.152;11.530;2024-02-26T07:42:25;8.30;;;2.90;;
56599;SDS011;51832;48.152;11.530;2024-02-26T07:47:26;10.15;;;3.60;;
56599;SDS011;51832;48.152;11.530;2024-02-26T07:52:26;6.22;;;3.00;;
56599;SDS011;51832;48.152;11.530;2024-02-26T07:57:27;6.15;;;3.08;;
56599;SDS011;51832;48.152;11.530;2024-02-26T08:02:27;4.72;;;2.67;;
56599;SDS011;51832;48.152;11.530;2024-02-26T08:07:28;6.53;;;3.17;;
56599;SDS011;51832;48.152;11.530;2024-02-26T08:12:28;8.90;;;3.83;;
56599;SDS011;51832;48.152;11.530;2024-02-26T08:17:29;6.13;;;4.00;;
56599;SDS011;51832;48.152;11.530;2024-02-26T08:22:29;5.80;;;2.85;;
56599;SDS011;51832;48.152;11.530;2024-02-26T08:27:30;5.05;;;2.85;;
56599;SDS011;51832;48.152;11.530;2024-02-26T08:32:30;5.60;;;3.05;;
56599;SDS011;51832;48.152;11.530;2024-02-26T08:37:30;6.05;;;3.38;;
56599;SDS011;51832;48.152;11.530;2024-02-26T08:42:31;5.85;;;3.58;;
56599;SDS011;51832;48.152;11.530;2024-02-26T08:47:31;5.10;;;3.00;;
56599;SDS011;51832;48.152;11.530;2024-02-26T08:52:32;6.53;;;3.45;;
56599;SDS011;51832;48.152;11.530;2024-02-26T08:57:36;6.45;;;3.10;;
56599;SDS011;51832;48.152;11.530;2024-02-26T09:02:38;7.00;;;3.20;;
56599;SDS011;51832;48.152;11.530;2024-02-26T09:07:38;5.10;;;3.10;;
56599;SDS011;51832;48.152;11.530;2024-02-26T09:12:39;7.18;;;3.47;;
56599;SDS011;51832;48.152;11.530;2024-02-26T09:17:39;5.13;;;3.10;;
56599;SDS011;51832;48.152;11.530;2024-02-26T09:22:40;5.35;;;2.85;;
56599;SDS011;51832;48.152;11.530;2024-02-26T09:27:42;5.95;;;2.85;;
56599;SDS011;51832;48.152;11.530;2024-02-26T09:32:45;5.50;;;2.55;;
56599;SDS011;51832;48.152;11.530;2024-02-26T09:37:48;5.35;;;2.63;;
56599;SDS011;51832;48.152;11.530;2024-02-26T09:42:49;4.03;;;2.25;;
56599;SDS011;51832;48.152;11.530;2024-02-26T09:47:56;5.07;;;2.00;;
56599;SDS011;51832;48.152;11.530;2024-02-26T09:52:57;5.03;;;2.20;;
56599;SDS011;51832;48.152;11.530;2024-02-26T09:58:00;2.65;;;1.92;;
56599;SDS011;51832;48.152;11.530;2024-02-26T10:03:02;6.28;;;2.30;;
56599;SDS011;51832;48.152;11.530;2024-02-26T10:08:04;3.05;;;1.80;;
56599;SDS011;51832;48.152;11.530;2024-02-26T10:13:06;5.15;;;2.00;;
56599;SDS011;51832;48.152;11.530;2024-02-26T10:18:10;3.90;;;2.50;;
56599;SDS011;51832;48.152;11.530;2024-02-26T10:23:10;5.65;;;2.65;;
56599;SDS011;51832;48.152;11.530;2024-02-26T10:28:10;2.13;;;1.92;;
56599;SDS011;51832;48.152;11.530;2024-02-26T10:33:11;3.85;;;1.95;;
56599;SDS011;51832;48.152;11.530;2024-02-26T10:38:13;3.28;;;1.95;;
56599;SDS011;51832;48.152;11.530;2024-02-26T10:43:16;3.78;;;1.98;;
56599;SDS011;51832;48.152;11.530;2024-02-26T10:48:18;2.65;;;1.67;;
56599;SDS011;51832;48.152;11.530;2024-02-26T10:53:22;4.82;;;1.63;;
56599;SDS011;51832;48.152;11.530;2024-02-26T10:58:23;2.78;;;1.30;;
56599;SDS011;51832;48.152;11.530;2024-02-26T11:03:25;3.63;;;1.80;;
56599;SDS011;51832;48.152;11.530;2024-02-26T11:08:26;2.35;;;1.80;;
56599;SDS011;51832;48.152;11.530;2024-02-26T11:13:28;2.88;;;1.52;;
56599;SDS011;51832;48.152;11.530;2024-02-26T11:18:31;8.95;;;2.15;;
56599;SDS011;51832;48.152;11.530;2024-02-26T11:23:32;1.30;;;1.20;;
56599;SDS011;51832;48.152;11.530;2024-02-26T11:28:35;3.73;;;1.70;;
56599;SDS011;51832;48.152;11.530;2024-02-26T11:33:37;1.33;;;1.10;;
56599;SDS011;51832;48.152;11.530;2024-02-26T11:38:37;3.38;;;1.30;;
56599;SDS011;51832;48.152;11.530;2024-02-26T11:43:51;2.10;;;1.30;;
56599;SDS011;51832;48.152;11.530;2024-02-26T11:49:02;1.88;;;1.20;;
56599;SDS011;51832;48.152;11.530;2024-02-26T11:54:39;1.83;;;1.50;;
56599;SDS011;51832;48.152;11.530;2024-02-26T11:59:48;1.30;;;1.20;;
56599;SDS011;51832;48.152;11.530;2024-02-26T12:04:50;3.30;;;1.27;;
56599;SDS011;51832;48.152;11.530;2024-02-26T12:09:51;3.75;;;1.45;;
56599;SDS011;51832;48.152;11.530;2024-02-26T12:14:52;2.13;;;1.08;;
56599;SDS011;51832;48.152;11.530;2024-02-26T12:19:55;2.22;;;1.20;;
56599;SDS011;51832;48.152;11.530;2024-02-26T12:25:09;2.30;;;1.52;;
56599;SDS011;51832;48.152;11.530;2024-02-26T12:30:10;2.45;;;1.00;;
56599;SDS011;51832;48.152;11.530;2024-02-26T12:35:11;3.15;;;1.20;;
56599;SDS011;51832;48.152;11.530;2024-02-26T12:40:12;1.25;;;1.05;;
56599;SDS011;51832;48.152;11.530;2024-02-26T12:45:13;7.35;;;1.13;;
56599;SDS011;51832;48.152;11.530;2024-02-26T12:50:15;1.17;;;1.08;;
56599;SDS011;51832;48.152;11.530;2024-02-26T12:55:19;2.83;;;1.20;;
56599;SDS011;51832;48.152;11.530;2024-02-26T13:00:25;2.05;;;1.20;;
56599;SDS011;51832;48.152;11.530;2024-02-26T13:05:26;1.35;;;1.20;;
56599;SDS011;51832;48.152;11.530;2024-02-26T13:10:28;1.42;;;1.20;;
56599;SDS011;51832;48.152;11.530;2024-02-26T13:15:28;1.92;;;1.20;;
56599;SDS011;51832;48.152;11.530;2024-02-26T13:20:29;1.63;;;1.20;;
56599;SDS011;51832;48.152;11.530;2024-02-26T13:25:30;2.50;;;1.67;;
56599;SDS011;51832;48.152;11.530;2024-02-26T13:30:31;1.60;;;1.20;;
56599;SDS011;51832;48.152;11.530;2024-02-26T13:35:31;1.95;;;1.42;;
56599;SDS011;51832;48.152;11.530;2024-02-26T13:40:33;2.08;;;1.10;;
56599;SDS011;51832;48.152;11.530;2024-02-26T13:45:37;1.40;;;0.80;;
56599;SDS011;51832;48.152;11.530;2024-02-26T13:50:39;1.85;;;1.00;;
56599;SDS011;51832;48.152;11.530;2024-02-26T13:55:40;2.47;;;1.00;;
56599;SDS011;51832;48.152;11.530;2024-02-26T14:00:44;1.80;;;0.90;;
56599;SDS011;51832;48.152;11.530;2024-02-26T14:05:45;1.58;;;0.75;;
56599;SDS011;51832;48.152;11.530;2024-02-26T14:10:46;1.80;;;1.00;;
56599;SDS011;51832;48.152;11.530;2024-02-26T14:15:46;1.42;;;0.90;;
56599;SDS011;51832;48.152;11.530;2024-02-26T14:20:47;1.42;;;0.95;;
56599;SDS011;51832;48.152;11.530;2024-02-26T14:25:47;1.02;;;0.85;;
56599;SDS011;51832;48.152;11.530;2024-02-26T14:30:48;1.92;;;1.10;;
56599;SDS011;51832;48.152;11.530;2024-02-26T14:35:48;2.00;;;1.10;;
56599;SDS011;51832;48.152;11.530;2024-02-26T14:40:49;1.75;;;1.38;;
56599;SDS011;51832;48.152;11.530;2024-02-26T14:45:49;2.35;;;1.30;;
56599;SDS011;51832;48.152;11.530;2024-02-26T14:50:50;2.20;;;1.58;;
56599;SDS011;51832;48.152;11.530;2024-02-26T14:55:50;3.03;;;1.90;;
56599;SDS011;51832;48.152;11.530;2024-02-26T15:00:51;3.50;;;2.65;;
56599;SDS011;51832;48.152;11.530;2024-02-26T15:05:51;8.20;;;3.63;;
56599;SDS011;51832;48.152;11.530;2024-02-26T15:10:52;3.38;;;2.05;;
56599;SDS011;51832;48.152;11.530;2024-02-26T15:15:52;4.10;;;2.15;;
56599;SDS011;51832;48.152;11.530;2024-02-26T15:20:53;4.20;;;1.95;;
56599;SDS011;51832;48.152;11.530;2024-02-26T15:25:54;2.83;;;1.70;;
56599;SDS011;51832;48.152;11.530;2024-02-26T15:30:55;2.35;;;1.70;;
56599;SDS011;51832;48.152;11.530;2024-02-26T15:35:55;2.20;;;2.00;;
56599;SDS011;51832;48.152;11.530;2024-02-26T15:40:55;2.88;;;1.77;;
56599;SDS011;51832;48.152;11.530;2024-02-26T15:45:56;2.28;;;1.70;;
56599;SDS011;51832;48.152;11.530;2024-02-26T15:50:56;2.85;;;1.60;;
56599;SDS011;51832;48.152;11.530;2024-02-26T15:55:57;1.73;;;1.60;;
56599;SDS011;51832;48.152;11.530;2024-02-26T16:00:58;1.65;;;1.55;;
56599;SDS011;51832;48.152;11.530;2024-02-26T16:05:59;5.63;;;3.08;;
56599;SDS011;51832;48.152;11.530;2024-02-26T16:10:59;4.15;;;2.65;;
56599;SDS011;51832;48.152;11.530;2024-02-26T16:16:04;2.85;;;1.75;;
56599;SDS011;51832;48.152;11.530;2024-02-26T16:21:10;5.13;;;1.80;;
56599;SDS011;51832;48.152;11.530;2024-02-26T16:26:10;2.95;;;1.88;;
56599;SDS011;51832;48.152;11.530;2024-02-26T16:31:11;4.40;;;2.30;;
56599;SDS011;51832;48.152;11.530;2024-02-26T16:36:11;2.60;;;1.80;;
56599;SDS011;51832;48.152;11.530;2024-02-26T16:41:12;3.97;;;1.85;;
56599;SDS011;51832;48.152;11.530;2024-02-26T16:46:13;3.63;;;2.30;;
56599;SDS011;51832;48.152;11.530;2024-02-26T16:51:15;3.47;;;1.90;;
56599;SDS011;51832;48.152;11.530;2024-02-26T16:56:16;3.83;;;1.85;;
56599;SDS011;51832;48.152;11.530;2024-02-26T17:01:16;3.70;;;1.95;;
56599;SDS011;51832;48.152;11.530;2024-02-26T17:06:17;3.85;;;1.98;;
56599;SDS011;51832;48.152;11.530;2024-02-26T17:11:23;4.20;;;2.67;;
56599;SDS011;51832;48.152;11.530;2024-02-26T17:16:28;2.30;;;2.10;;
56599;SDS011;51832;48.152;11.530;2024-02-26T17:21:29;2.72;;;1.90;;
56599;SDS011;51832;48.152;11.530;2024-02-26T17:26:30;4.15;;;2.30;;
56599;SDS011;51832;48.152;11.530;2024-02-26T17:31:30;3.40;;;2.50;;
56599;SDS011;51832;48.152;11.530;2024-02-26T17:36:31;3.78;;;2.75;;
56599;SDS011;51832;48.152;11.530;2024-02-26T17:41:31;5.50;;;2.40;;
56599;SDS011;51832;48.152;11.530;2024-02-26T17:46:31;5.25;;;2.92;;
56599;SDS011;51832;48.152;11.530;2024-02-26T17:51:32;4.15;;;3.05;;
56599;SDS011;51832;48.152;11.530;2024-02-26T17:56:33;4.82;;;2.55;;
56599;SDS011;51832;48.152;11.530;2024-02-26T18:01:33;4.10;;;2.70;;
56599;SDS011;51832;48.152;11.530;2024-02-26T18:06:33;4.07;;;2.80;;
56599;SDS011;51832;48.152;11.530;2024-02-26T18:11:34;4.63;;;2.67;;
56599;SDS011;51832;48.152;11.530;2024-02-26T18:16:35;7.05;;;4.72;;
56599;SDS011;51832;48.152;11.530;2024-02-26T18:21:35;5.05;;;3.70;;
56599;SDS011;51832;48.152;11.530;2024-02-26T18:26:35;5.15;;;3.05;;
56599;SDS011;51832;48.152;11.530;2024-02-26T18:31:36;3.38;;;2.78;;
56599;SDS011;51832;48.152;11.530;2024-02-26T18:36:37;8.48;;;4.88;;
56599;SDS011;51832;48.152;11.530;2024-02-26T18:41:42;11.48;;;5.35;;
56599;SDS011;51832;48.152;11.530;2024-02-26T18:46:43;5.35;;;3.38;;
56599;SDS011;51832;48.152;11.530;2024-02-26T18:51:45;4.57;;;3.00;;
56599;SDS011;51832;48.152;11.530;2024-02-26T18:56:45;4.93;;;3.40;;
56599;SDS011;51832;48.152;11.530;2024-02-26T19:01:46;4.45;;;3.03;;
56599;SDS011;51832;48.152;11.530;2024-02-26T19:06:47;6.75;;;3.30;;
56599;SDS011;51832;48.152;11.530;2024-02-26T19:11:47;3.15;;;2.75;;
56599;SDS011;51832;48.152;11.530;2024-02-26T19:16:51;5.25;;;3.15;;
56599;SDS011;51832;48.152;11.530;2024-02-26T19:21:52;4.55;;;3.15;;
56599;SDS011;51832;48.152;11.530;2024-02-26T19:26:53;5.47;;;3.30;;
56599;SDS011;51832;48.152;11.530;2024-02-26T19:31:53;5.57;;;3.28;;
56599;SDS011;51832;48.152;11.530;2024-02-26T19:36:54;5.18;;;2.88;;
56599;SDS011;51832;48.152;11.530;2024-02-26T19:41:54;3.85;;;3.03;;
56599;SDS011;51832;48.152;11.530;2024-02-26T19:46:54;5.55;;;3.40;;
56599;SDS011;51832;48.152;11.530;2024-02-26T19:51:55;5.93;;;3.90;;
56599;SDS011;51832;48.152;11.530;2024-02-26T19:56:55;6.60;;;3.50;;
56599;SDS011;51832;48.152;11.530;2024-02-26T20:01:56;5.85;;;3.25;;
56599;SDS011;51832;48.152;11.530;2024-02-26T20:06:56;4.97;;;3.58;;
56599;SDS011;51832;48.152;11.530;2024-02-26T20:12:00;5.70;;;3.90;;
56599;SDS011;51832;48.152;11.530;2024-02-26T20:17:01;5.07;;;3.90;;
56599;SDS011;51832;48.152;11.530;2024-02-26T20:22:02;7.20;;;3.90;;
56599;SDS011;51832;48.152;11.530;2024-02-26T20:27:04;5.05;;;3.67;;
56599;SDS011;51832;48.152;11.530;2024-02-26T20:32:05;4.60;;;3.70;;
56599;SDS011;51832;48.152;11.530;2024-02-26T20:37:06;5.45;;;3.90;;
56599;SDS011;51832;48.152;11.530;2024-02-26T20:42:06;5.03;;;3.67;;
56599;SDS011;51832;48.152;11.530;2024-02-26T20:47:07;6.13;;;4.30;;
56599;SDS011;51832;48.152;11.530;2024-02-26T20:52:08;4.13;;;3.50;;
56599;SDS011;51832;48.152;11.530;2024-02-26T20:57:08;6.30;;;4.25;;
56599;SDS011;51832;48.152;11.530;2024-02-26T21:02:10;5.13;;;3.58;;
56599;SDS011;51832;48.152;11.530;2024-02-26T21:07:10;6.13;;;3.60;;
56599;SDS011;51832;48.152;11.530;2024-02-26T21:12:10;5.07;;;3.80;;
56599;SDS011;51832;48.152;11.530;2024-02-26T21:17:12;3.45;;;3.10;;
56599;SDS011;51832;48.152;11.530;2024-02-26T21:22:12;3.85;;;3.30;;
56599;SDS011;51832;48.152;11.530;2024-02-26T21:27:13;4.72;;;3.03;;
56599;SDS011;51832;48.152;11.530;2024-02-26T21:32:14;3.42;;;2.63;;
56599;SDS011;51832;48.152;11.530;2024-02-26T21:37:15;4.53;;;3.25;;
56599;SDS011;51832;48.152;11.530;2024-02-26T21:42:15;5.72;;;3.47;;
56599;SDS011;51832;48.152;11.530;2024-02-26T21:47:16;5.43;;;3.13;;
56599;SDS011;51832;48.152;11.530;2024-02-26T21:52:17;3.78;;;3.22;;
56599;SDS011;51832;48.152;11.530;2024-02-26T21:57:17;5.63;;;3.17;;
56599;SDS011;51832;48.152;11.530;2024-02-26T22:02:18;5.10;;;3.28;;
56599;SDS011;51832;48.152;11.530;2024-02-26T22:07:18;6.10;;;3.60;;
56599;SDS011;51832;48.152;11.530;2024-02-26T22:12:19;4.90;;;3.25;;
56599;SDS011;51832;48.152;11.530;2024-02-26T22:17:20;4.80;;;3.78;;
56599;SDS011;51832;48.152;11.530;2024-02-26T22:22:20;6.10;;;4.00;;
56599;SDS011;51832;48.152;11.530;2024-02-26T22:27:21;4.80;;;3.80;;
56599;SDS011;51832;48.152;11.530;2024-02-26T22:32:21;5.07;;;4.00;;
56599;SDS011;51832;48.152;11.530;2024-02-26T22:37:21;5.68;;;4.15;;
56599;SDS011;51832;48.152;11.530;2024-02-26T22:42:22;7.55;;;4.80;;
56599;SDS011;51832;48.152;11.530;2024-02-26T22:47:22;6.72;;;4.55;;
56599;SDS011;51832;48.152;11.530;2024-02-26T22:52:23;6.75;;;4.20;;
56599;SDS011;51832;48.152;11.530;2024-02-26T22:57:23;6.03;;;4.63;;
56599;SDS011;51832;48.152;11.530;2024-02-26T23:02:24;9.35;;;5.15;;
56599;SDS011;51832;48.152;11.530;2024-02-26T23:07:24;8.40;;;5.25;;
56599;SDS011;51832;48.152;11.530;2024-02-26T23:12:24;7.80;;;5.25;;
56599;SDS011;51832;48.152;11.530;2024-02-26T23:17:25;9.43;;;5.38;;
56599;SDS011;51832;48.152;11.530;2024-02-26T23:22:25;8.13;;;5.65;;
56599;SDS011;51832;48.152;11.530;2024-02-26T23:27:26;8.68;;;5.88;;
56599;SDS011;51832;48.152;11.530;2024-02-26T23:32:26;7.68;;;5.40;;
56599;SDS011;51832;48.152;11.530;2024-02-26T23:37:27;7.97;;;5.05;;
56599;SDS011;51832;48.152;11.530;2024-02-26T23:42:27;10.82;;;6.32;;
56599;SDS011;51832;48.152;11.530;2024-02-26T23:47:28;7.70;;;5.68;;
56599;SDS011;51832;48.152;11.530;2024-02-26T23:52:29;8.90;;;5.78;;
56599;SDS011;51832;48.152;11.530;2024-02-26T23:57:29;9.77;;;5.72;;
